createdAt,value
2022-10-22T00:00:36.302Z,95.40
2022-10-22T00:05:40.413Z,95.52
2022-10-22T00:10:43.271Z,95.42
2022-10-22T00:15:45.873Z,95.47
2022-10-22T00:20:49.821Z,95.49
2022-10-22T00:25:53.862Z,95.42
2022-10-22T00:30:57.781Z,95.61
2022-10-22T00:36:01.704Z,95.62
2022-10-22T00:41:04.353Z,95.49
2022-10-22T00:46:06.925Z,95.55
2022-10-22T00:51:10.952Z,95.60
2022-10-22T00:56:13.620Z,95.53
2022-10-22T01:01:21.528Z,95.61
2022-10-22T01:06:27.759Z,95.27
2022-10-22T01:11:38.369Z,95.60
2022-10-22T01:16:45.405Z,95.58
2022-10-22T01:21:55.764Z,95.65
2022-10-22T01:27:07.514Z,95.47
2022-10-22T01:32:15.344Z,95.76
2022-10-22T01:37:19.136Z,95.56
2022-10-22T01:42:21.918Z,95.63
2022-10-22T01:47:36.460Z,95.73
2022-10-22T01:52:49.893Z,95.62
2022-10-22T01:58:00.691Z,95.46
2022-10-22T02:03:07.370Z,95.76
2022-10-22T02:08:11.324Z,95.65
2022-10-22T02:13:17.203Z,95.78
2022-10-22T02:18:23.603Z,95.85
2022-10-22T02:23:26.298Z,95.93
2022-10-22T02:28:33.732Z,96.02
2022-10-22T02:33:40.507Z,96.15
2022-10-22T02:38:43.265Z,96.16
2022-10-22T02:43:51.514Z,96.23
2022-10-22T02:48:55.754Z,96.22
2022-10-22T02:53:58.473Z,96.25
2022-10-22T02:59:01.088Z,96.21
2022-10-22T03:04:05.444Z,96.36
2022-10-22T03:09:08.091Z,96.45
2022-10-22T03:14:10.748Z,96.39
2022-10-22T03:19:14.850Z,96.60
2022-10-22T03:24:19.268Z,96.42
2022-10-22T03:29:22.499Z,96.61
2022-10-22T03:34:26.452Z,96.53
2022-10-22T03:39:30.102Z,96.63
2022-10-22T03:44:33.196Z,96.58
2022-10-22T03:49:37.262Z,96.65
2022-10-22T03:54:40.303Z,96.55
2022-10-22T03:59:44.848Z,96.53
2022-10-22T04:04:48.833Z,96.76
2022-10-22T04:09:51.435Z,96.59
2022-10-22T04:14:54.115Z,96.79
2022-10-22T04:19:58.140Z,96.75
2022-10-22T04:25:00.771Z,96.93
2022-10-22T04:30:03.940Z,97.11
2022-10-22T04:35:08.832Z,96.79
2022-10-22T04:40:12.912Z,96.96
2022-10-22T04:45:16.133Z,97.24
2022-10-22T04:50:20.573Z,96.99
2022-10-22T04:55:23.267Z,96.93
2022-10-22T05:00:25.913Z,97.15
2022-10-22T05:05:29.841Z,97.05
2022-10-22T05:10:32.430Z,97.01
2022-10-22T05:15:36.279Z,97.13
2022-10-22T05:20:42.254Z,97.19
2022-10-22T05:25:44.892Z,97.03
2022-10-22T05:30:54.115Z,96.90
2022-10-22T05:35:58.736Z,96.94
2022-10-22T05:41:01.948Z,96.91
2022-10-22T05:46:06.768Z,96.75
2022-10-22T05:51:11.975Z,96.61
2022-10-22T05:56:16.372Z,96.52
2022-10-22T06:01:20.945Z,96.57
2022-10-22T06:06:28.778Z,96.84
2022-10-22T06:11:34.279Z,96.51
2022-10-22T06:16:38.037Z,96.81
2022-10-22T06:21:42.401Z,96.65
2022-10-22T06:26:45.448Z,96.74
2022-10-22T06:31:48.660Z,96.80
2022-10-22T06:36:52.613Z,96.93
2022-10-22T06:41:55.322Z,96.73
2022-10-22T06:46:57.932Z,96.80
2022-10-22T06:52:01.911Z,96.87
2022-10-22T06:57:04.718Z,96.85
2022-10-22T07:02:07.582Z,96.92
2022-10-22T07:07:11.586Z,96.96
2022-10-22T07:12:14.521Z,97.02
2022-10-22T07:17:17.126Z,96.97
2022-10-22T07:22:21.240Z,96.96
2022-10-22T07:27:23.979Z,96.82
2022-10-22T07:32:26.573Z,96.52
2022-10-22T07:37:30.487Z,96.51
2022-10-22T07:42:33.109Z,96.30
2022-10-22T07:47:35.826Z,96.10
2022-10-22T07:52:40.178Z,96.11
2022-10-22T07:57:43.064Z,95.98
2022-10-22T08:02:45.664Z,96.10
2022-10-22T08:07:49.631Z,96.15
2022-10-22T08:12:52.233Z,96.13
2022-10-22T08:17:54.905Z,96.11
2022-10-22T08:22:59.446Z,95.79
2022-10-22T08:28:02.168Z,95.65
2022-10-22T08:33:05.375Z,95.80
2022-10-22T08:38:09.519Z,95.71
2022-10-22T08:43:25.830Z,95.74
2022-10-22T08:48:40.655Z,95.66
2022-10-22T08:53:54.095Z,95.70
2022-10-22T08:59:00.847Z,95.96
2022-10-22T09:04:07.699Z,95.97
2022-10-22T09:09:14.140Z,96.12
2022-10-22T09:14:18.706Z,96.02
2022-10-22T09:19:26.267Z,96.01
2022-10-22T09:24:34.573Z,95.98
2022-10-22T09:29:38.191Z,95.86
2022-10-22T09:34:41.107Z,95.45
2022-10-22T09:39:47.606Z,95.08
2022-10-22T09:44:53.291Z,95.03
2022-10-22T09:50:06.068Z,94.69
2022-10-22T09:55:15.580Z,94.73
2022-10-22T10:00:20.108Z,94.46
2022-10-22T10:05:27.212Z,93.65
2022-10-22T10:10:36.459Z,93.27
2022-10-22T10:15:44.904Z,92.98
2022-10-22T10:20:54.087Z,92.45
2022-10-22T10:26:02.440Z,91.63
2022-10-22T10:31:12.004Z,90.85
2022-10-22T10:36:20.836Z,90.26
2022-10-22T10:41:31.788Z,89.60
2022-10-22T10:46:38.905Z,88.88
2022-10-22T10:51:50.236Z,88.36
2022-10-22T10:56:57.575Z,87.80
2022-10-22T11:02:33.789Z,87.16
2022-10-22T11:07:40.439Z,86.53
2022-10-22T11:12:48.741Z,85.74
2022-10-22T11:17:52.780Z,84.87
2022-10-22T11:23:18.172Z,83.21
2022-10-22T11:28:26.076Z,81.92
2022-10-22T11:33:43.608Z,81.11
2022-10-22T11:38:46.505Z,80.76
2022-10-22T11:44:10.732Z,80.04
2022-10-22T11:49:24.519Z,79.07
2022-10-22T11:54:42.424Z,78.92
2022-10-22T11:59:51.038Z,78.68
2022-10-22T12:04:53.782Z,77.92
2022-10-22T12:09:56.777Z,78.34
2022-10-22T12:15:00.887Z,77.92
2022-10-22T12:20:09.117Z,77.11
2022-10-22T12:25:19.924Z,76.87
2022-10-22T12:30:26.169Z,76.12
2022-10-22T12:35:30.634Z,75.62
2022-10-22T12:40:35.614Z,75.61
2022-10-22T12:45:39.828Z,75.66
2022-10-22T12:50:44.238Z,75.44
2022-10-22T12:55:50.138Z,75.31
2022-10-22T13:01:00.746Z,75.43
2022-10-22T13:06:13.535Z,75.84
2022-10-22T13:11:21.393Z,75.50
2022-10-22T13:16:27.776Z,76.15
2022-10-22T13:21:35.146Z,76.51
2022-10-22T13:26:38.747Z,76.66
2022-10-22T13:31:48.333Z,77.06
2022-10-22T13:36:51.610Z,76.89
2022-10-22T13:41:54.261Z,77.59
2022-10-22T13:46:58.278Z,78.13
2022-10-22T13:52:01.027Z,77.99
2022-10-22T13:57:03.703Z,78.64
2022-10-22T14:02:12.537Z,78.48
2022-10-22T14:07:16.428Z,78.74
2022-10-22T14:12:19.044Z,78.31
2022-10-22T14:17:23.086Z,78.31
2022-10-22T14:22:28.174Z,78.64
2022-10-22T14:27:30.797Z,78.54
2022-10-22T14:32:34.821Z,78.14
2022-10-22T14:37:37.451Z,77.93
2022-10-22T14:42:42.358Z,77.99
2022-10-22T14:47:46.645Z,77.90
2022-10-22T14:52:49.543Z,78.47
2022-10-22T14:57:52.186Z,78.36
2022-10-22T15:02:56.220Z,78.78
2022-10-22T15:08:00.182Z,78.88
2022-10-22T15:13:03.002Z,79.06
2022-10-22T15:18:07.208Z,78.92
2022-10-22T15:23:09.842Z,78.53
2022-10-22T15:28:12.535Z,78.28
2022-10-22T15:33:16.604Z,77.83
2022-10-22T15:38:19.526Z,77.38
2022-10-22T15:43:22.486Z,77.85
2022-10-22T15:48:26.477Z,78.01
2022-10-22T15:53:29.180Z,78.84
2022-10-22T15:58:32.031Z,79.68
2022-10-22T16:03:36.451Z,79.88
2022-10-22T16:08:39.766Z,79.99
2022-10-22T16:13:42.456Z,80.20
2022-10-22T16:18:46.680Z,80.66
2022-10-22T16:23:49.609Z,80.99
2022-10-22T16:28:52.418Z,81.00
2022-10-22T16:33:56.634Z,80.88
2022-10-22T16:38:59.244Z,80.86
2022-10-22T16:44:03.239Z,81.18
2022-10-22T16:49:08.215Z,81.75
2022-10-22T16:54:13.037Z,81.62
2022-10-22T16:59:15.627Z,81.86
2022-10-22T17:04:19.575Z,82.07
2022-10-22T17:09:24.114Z,82.18
2022-10-22T17:14:26.869Z,81.97
2022-10-22T17:19:31.026Z,81.92
2022-10-22T17:24:33.712Z,81.92
2022-10-22T17:29:37.189Z,81.97
2022-10-22T17:34:41.185Z,82.16
2022-10-22T17:39:43.818Z,82.37
2022-10-22T17:44:46.402Z,82.47
2022-10-22T17:49:50.391Z,82.43
2022-10-22T17:54:53.648Z,82.44
2022-10-22T17:59:56.360Z,82.33
2022-10-22T18:05:00.297Z,82.20
2022-10-22T18:10:02.969Z,82.17
2022-10-22T18:15:06.581Z,82.12
2022-10-22T18:20:12.153Z,82.19
2022-10-22T18:25:14.852Z,82.47
2022-10-22T18:30:17.708Z,82.55
2022-10-22T18:35:21.692Z,82.54
2022-10-22T18:40:24.293Z,82.66
2022-10-22T18:45:26.894Z,82.72
2022-10-22T18:55:39.673Z,82.73
2022-10-22T19:00:42.313Z,82.56
2022-10-22T19:05:48.525Z,82.88
2022-10-22T19:10:51.151Z,83.13
2022-10-22T19:15:54.051Z,83.01
2022-10-22T19:21:01.058Z,83.65
2022-10-22T19:26:06.208Z,83.54
2022-10-22T19:31:09.723Z,83.61
2022-10-22T19:36:14.822Z,83.62
2022-10-22T19:41:20.188Z,83.43
2022-10-22T19:46:23.900Z,83.67
2022-10-22T19:51:30.656Z,83.68
2022-10-22T19:56:34.405Z,83.66
2022-10-22T20:01:37.171Z,83.78
2022-10-22T20:06:41.363Z,83.59
2022-10-22T20:11:44.278Z,83.72
2022-10-22T20:16:46.936Z,83.87
2022-10-22T20:21:51.030Z,83.87
2022-10-22T20:26:53.766Z,83.79
2022-10-22T20:31:56.464Z,83.79
2022-10-22T20:37:00.403Z,83.97
2022-10-22T20:42:03.009Z,83.99
2022-10-22T20:47:05.761Z,84.02
2022-10-22T20:52:09.792Z,84.00
2022-10-22T20:57:13.160Z,83.86
2022-10-22T21:02:15.858Z,83.94
2022-10-22T21:07:19.831Z,84.13
2022-10-22T21:12:22.421Z,84.00
2022-10-22T21:17:25.004Z,83.88
2022-10-22T21:22:29.093Z,83.78
2022-10-22T21:27:31.695Z,83.31
2022-10-22T21:32:34.654Z,83.59
2022-10-22T21:37:38.844Z,83.64
2022-10-22T21:42:41.546Z,83.79
2022-10-22T21:47:44.383Z,84.24
2022-10-22T21:52:48.744Z,84.14
2022-10-22T21:57:51.522Z,84.30
2022-10-22T22:02:54.133Z,84.20
2022-10-22T22:07:58.076Z,84.17
2022-10-22T22:13:00.628Z,84.25
2022-10-22T22:18:03.419Z,84.05
2022-10-22T22:23:07.478Z,84.16
2022-10-22T22:28:10.116Z,84.23
2022-10-22T22:33:12.720Z,84.54
2022-10-22T22:38:18.314Z,84.43
2022-10-22T22:43:20.893Z,84.38
2022-10-22T22:48:23.481Z,84.24
2022-10-22T22:53:28.191Z,84.08
2022-10-22T22:58:30.834Z,84.12
2022-10-22T23:03:33.411Z,84.16
2022-10-22T23:08:37.810Z,84.03
2022-10-22T23:13:42.127Z,83.96
2022-10-22T23:18:45.302Z,83.66
2022-10-22T23:23:50.706Z,83.85
2022-10-22T23:28:53.347Z,83.80
2022-10-22T23:33:56.003Z,83.98
2022-10-22T23:39:00.044Z,83.65
2022-10-22T23:44:02.756Z,83.88
2022-10-22T23:49:06.173Z,84.11
2022-10-22T23:54:12.536Z,84.03
2022-10-22T23:59:15.609Z,84.03
